sensor_id;sensor_type;location;lat;lon;timestamp;P1;durP1;ratioP1;P2;durP2;ratioP2
40164;SDS011;25882;51.120;17.248;2023-03-01T00:01:29;80.28;;;36.13;;
40164;SDS011;25882;51.120;17.248;2023-03-01T00:03:56;92.45;;;39.22;;
40164;SDS011;25882;51.120;17.248;2023-03-01T00:06:23;101.97;;;41.28;;
40164;SDS011;25882;51.120;17.248;2023-03-01T00:08:51;97.90;;;39.08;;
40164;SDS011;25882;51.120;17.248;2023-03-01T00:11:19;100.72;;;42.83;;
40164;SDS011;25882;51.120;17.248;2023-03-01T00:13:47;206.95;;;66.32;;
40164;SDS011;25882;51.120;17.248;2023-03-01T00:16:16;117.85;;;49.72;;
40164;SDS011;25882;51.120;17.248;2023-03-01T00:18:44;113.25;;;42.72;;
40164;SDS011;25882;51.120;17.248;2023-03-01T00:21:11;123.53;;;48.58;;
40164;SDS011;25882;51.120;17.248;2023-03-01T00:25:56;136.15;;;52.75;;
40164;SDS011;25882;51.120;17.248;2023-03-01T00:28:22;131.10;;;53.65;;
40164;SDS011;25882;51.120;17.248;2023-03-01T00:30:48;134.80;;;53.63;;
40164;SDS011;25882;51.120;17.248;2023-03-01T00:33:15;123.03;;;49.22;;
40164;SDS011;25882;51.120;17.248;2023-03-01T00:35:41;123.35;;;48.28;;
40164;SDS011;25882;51.120;17.248;2023-03-01T00:38:07;121.90;;;48.05;;
40164;SDS011;25882;51.120;17.248;2023-03-01T00:40:34;126.45;;;48.95;;
40164;SDS011;25882;51.120;17.248;2023-03-01T00:43:02;128.88;;;54.47;;
40164;SDS011;25882;51.120;17.248;2023-03-01T00:45:28;140.25;;;56.58;;
40164;SDS011;25882;51.120;17.248;2023-03-01T00:47:56;140.35;;;56.90;;
40164;SDS011;25882;51.120;17.248;2023-03-01T00:50:23;137.23;;;55.70;;
40164;SDS011;25882;51.120;17.248;2023-03-01T00:52:51;129.07;;;52.47;;
40164;SDS011;25882;51.120;17.248;2023-03-01T00:55:17;127.47;;;53.63;;
40164;SDS011;25882;51.120;17.248;2023-03-01T00:57:43;128.70;;;51.50;;
40164;SDS011;25882;51.120;17.248;2023-03-01T01:00:11;136.98;;;52.53;;
40164;SDS011;25882;51.120;17.248;2023-03-01T01:02:38;140.25;;;55.25;;
40164;SDS011;25882;51.120;17.248;2023-03-01T01:05:04;135.40;;;53.88;;
40164;SDS011;25882;51.120;17.248;2023-03-01T01:07:30;131.60;;;53.03;;
40164;SDS011;25882;51.120;17.248;2023-03-01T01:09:56;140.05;;;56.53;;
40164;SDS011;25882;51.120;17.248;2023-03-01T01:12:23;131.80;;;53.33;;
40164;SDS011;25882;51.120;17.248;2023-03-01T01:14:48;114.35;;;48.00;;
40164;SDS011;25882;51.120;17.248;2023-03-01T01:17:16;173.35;;;68.07;;
40164;SDS011;25882;51.120;17.248;2023-03-01T01:19:42;208.70;;;77.85;;
40164;SDS011;25882;51.120;17.248;2023-03-01T01:22:09;199.63;;;75.72;;
40164;SDS011;25882;51.120;17.248;2023-03-01T01:24:35;165.63;;;64.10;;
40164;SDS011;25882;51.120;17.248;2023-03-01T01:27:01;144.82;;;59.05;;
40164;SDS011;25882;51.120;17.248;2023-03-01T01:29:27;133.73;;;54.22;;
40164;SDS011;25882;51.120;17.248;2023-03-01T01:31:53;152.93;;;59.05;;
40164;SDS011;25882;51.120;17.248;2023-03-01T01:34:21;160.73;;;63.88;;
40164;SDS011;25882;51.120;17.248;2023-03-01T01:36:47;150.45;;;60.58;;
40164;SDS011;25882;51.120;17.248;2023-03-01T01:39:13;159.40;;;62.70;;
40164;SDS011;25882;51.120;17.248;2023-03-01T01:41:40;160.75;;;63.45;;
40164;SDS011;25882;51.120;17.248;2023-03-01T01:44:12;439.75;;;172.15;;
40164;SDS011;25882;51.120;17.248;2023-03-01T01:46:38;819.38;;;342.23;;
40164;SDS011;25882;51.120;17.248;2023-03-01T01:49:07;193.85;;;87.05;;
40164;SDS011;25882;51.120;17.248;2023-03-01T01:51:40;193.52;;;77.22;;
40164;SDS011;25882;51.120;17.248;2023-03-01T01:54:10;282.58;;;106.10;;
40164;SDS011;25882;51.120;17.248;2023-03-01T01:56:37;185.57;;;77.47;;
40164;SDS011;25882;51.120;17.248;2023-03-01T01:59:04;143.32;;;59.35;;
40164;SDS011;25882;51.120;17.248;2023-03-01T02:01:30;117.55;;;51.97;;
40164;SDS011;25882;51.120;17.248;2023-03-01T02:03:56;121.22;;;48.05;;
40164;SDS011;25882;51.120;17.248;2023-03-01T02:06:26;136.07;;;55.50;;
40164;SDS011;25882;51.120;17.248;2023-03-01T02:08:59;126.10;;;49.20;;
40164;SDS011;25882;51.120;17.248;2023-03-01T02:11:27;106.70;;;46.13;;
40164;SDS011;25882;51.120;17.248;2023-03-01T02:13:55;236.75;;;86.32;;
40164;SDS011;25882;51.120;17.248;2023-03-01T02:16:21;126.88;;;54.10;;
40164;SDS011;25882;51.120;17.248;2023-03-01T02:18:47;124.82;;;50.33;;
40164;SDS011;25882;51.120;17.248;2023-03-01T02:23:54;115.15;;;45.60;;
40164;SDS011;25882;51.120;17.248;2023-03-01T02:26:26;110.13;;;47.05;;
40164;SDS011;25882;51.120;17.248;2023-03-01T02:28:54;100.78;;;42.78;;
40164;SDS011;25882;51.120;17.248;2023-03-01T02:31:21;117.53;;;49.38;;
40164;SDS011;25882;51.120;17.248;2023-03-01T02:34:06;187.23;;;75.85;;
40164;SDS011;25882;51.120;17.248;2023-03-01T02:36:34;127.85;;;55.28;;
40164;SDS011;25882;51.120;17.248;2023-03-01T02:39:00;123.57;;;51.28;;
40164;SDS011;25882;51.120;17.248;2023-03-01T02:41:28;124.32;;;51.60;;
40164;SDS011;25882;51.120;17.248;2023-03-01T02:43:57;115.70;;;46.05;;
40164;SDS011;25882;51.120;17.248;2023-03-01T02:46:24;103.90;;;42.88;;
40164;SDS011;25882;51.120;17.248;2023-03-01T02:48:51;104.43;;;44.63;;
40164;SDS011;25882;51.120;17.248;2023-03-01T02:51:31;103.80;;;42.85;;
40164;SDS011;25882;51.120;17.248;2023-03-01T02:54:05;115.03;;;47.00;;
40164;SDS011;25882;51.120;17.248;2023-03-01T02:56:34;102.10;;;42.15;;
40164;SDS011;25882;51.120;17.248;2023-03-01T02:59:01;106.10;;;45.85;;
40164;SDS011;25882;51.120;17.248;2023-03-01T03:01:31;124.80;;;45.78;;
40164;SDS011;25882;51.120;17.248;2023-03-01T03:04:03;127.45;;;49.63;;
40164;SDS011;25882;51.120;17.248;2023-03-01T03:06:30;118.28;;;48.20;;
40164;SDS011;25882;51.120;17.248;2023-03-01T03:08:56;110.80;;;45.55;;
40164;SDS011;25882;51.120;17.248;2023-03-01T03:11:22;99.53;;;43.20;;
40164;SDS011;25882;51.120;17.248;2023-03-01T03:13:48;105.78;;;44.58;;
40164;SDS011;25882;51.120;17.248;2023-03-01T03:16:16;102.43;;;43.63;;
40164;SDS011;25882;51.120;17.248;2023-03-01T03:18:42;105.82;;;43.83;;
40164;SDS011;25882;51.120;17.248;2023-03-01T03:21:08;97.00;;;42.90;;
40164;SDS011;25882;51.120;17.248;2023-03-01T03:23:37;132.70;;;57.45;;
40164;SDS011;25882;51.120;17.248;2023-03-01T03:26:04;121.03;;;54.63;;
40164;SDS011;25882;51.120;17.248;2023-03-01T03:28:30;109.35;;;49.65;;
40164;SDS011;25882;51.120;17.248;2023-03-01T03:30:56;128.15;;;56.63;;
40164;SDS011;25882;51.120;17.248;2023-03-01T03:33:24;133.18;;;55.28;;
40164;SDS011;25882;51.120;17.248;2023-03-01T03:35:50;120.82;;;50.13;;
40164;SDS011;25882;51.120;17.248;2023-03-01T03:38:18;116.07;;;49.42;;
40164;SDS011;25882;51.120;17.248;2023-03-01T03:40:46;122.22;;;50.47;;
40164;SDS011;25882;51.120;17.248;2023-03-01T03:43:12;144.13;;;59.67;;
40164;SDS011;25882;51.120;17.248;2023-03-01T03:45:39;160.32;;;69.45;;
40164;SDS011;25882;51.120;17.248;2023-03-01T03:48:05;147.93;;;67.40;;
40164;SDS011;25882;51.120;17.248;2023-03-01T03:50:34;138.75;;;58.72;;
40164;SDS011;25882;51.120;17.248;2023-03-01T03:53:00;140.02;;;60.53;;
40164;SDS011;25882;51.120;17.248;2023-03-01T03:55:26;138.05;;;59.17;;
40164;SDS011;25882;51.120;17.248;2023-03-01T03:57:56;175.93;;;66.95;;
40164;SDS011;25882;51.120;17.248;2023-03-01T04:00:23;147.05;;;62.08;;
40164;SDS011;25882;51.120;17.248;2023-03-01T04:02:49;160.85;;;62.08;;
40164;SDS011;25882;51.120;17.248;2023-03-01T04:05:16;156.18;;;61.15;;
40164;SDS011;25882;51.120;17.248;2023-03-01T04:07:45;149.93;;;59.28;;
40164;SDS011;25882;51.120;17.248;2023-03-01T04:10:12;149.57;;;58.63;;
40164;SDS011;25882;51.120;17.248;2023-03-01T04:12:38;162.38;;;58.83;;
40164;SDS011;25882;51.120;17.248;2023-03-01T04:15:05;121.57;;;52.33;;
40164;SDS011;25882;51.120;17.248;2023-03-01T04:17:38;113.10;;;50.83;;
40164;SDS011;25882;51.120;17.248;2023-03-01T04:20:05;131.10;;;53.15;;
40164;SDS011;25882;51.120;17.248;2023-03-01T04:22:32;133.48;;;54.70;;
40164;SDS011;25882;51.120;17.248;2023-03-01T04:25:00;127.15;;;52.53;;
40164;SDS011;25882;51.120;17.248;2023-03-01T04:27:30;133.32;;;53.28;;
40164;SDS011;25882;51.120;17.248;2023-03-01T04:29:56;116.00;;;50.67;;
40164;SDS011;25882;51.120;17.248;2023-03-01T04:32:22;111.10;;;46.97;;
40164;SDS011;25882;51.120;17.248;2023-03-01T04:34:48;109.82;;;47.45;;
40164;SDS011;25882;51.120;17.248;2023-03-01T04:37:14;114.70;;;47.20;;
40164;SDS011;25882;51.120;17.248;2023-03-01T04:39:42;110.97;;;44.55;;
40164;SDS011;25882;51.120;17.248;2023-03-01T04:42:14;116.32;;;44.35;;
40164;SDS011;25882;51.120;17.248;2023-03-01T04:44:41;108.30;;;44.42;;
40164;SDS011;25882;51.120;17.248;2023-03-01T04:47:06;107.70;;;45.70;;
40164;SDS011;25882;51.120;17.248;2023-03-01T04:49:33;110.63;;;45.45;;
40164;SDS011;25882;51.120;17.248;2023-03-01T04:51:59;104.25;;;44.95;;
40164;SDS011;25882;51.120;17.248;2023-03-01T04:54:28;112.30;;;45.17;;
40164;SDS011;25882;51.120;17.248;2023-03-01T04:56:53;110.35;;;45.08;;
40164;SDS011;25882;51.120;17.248;2023-03-01T04:59:21;106.65;;;44.25;;
40164;SDS011;25882;51.120;17.248;2023-03-01T05:01:47;106.72;;;46.78;;
40164;SDS011;25882;51.120;17.248;2023-03-01T05:04:14;104.35;;;43.70;;
40164;SDS011;25882;51.120;17.248;2023-03-01T05:06:40;110.45;;;45.92;;
40164;SDS011;25882;51.120;17.248;2023-03-01T05:09:06;120.70;;;48.15;;
40164;SDS011;25882;51.120;17.248;2023-03-01T05:11:32;104.28;;;45.53;;
40164;SDS011;25882;51.120;17.248;2023-03-01T05:14:02;121.90;;;50.38;;
40164;SDS011;25882;51.120;17.248;2023-03-01T05:16:29;118.85;;;50.28;;
40164;SDS011;25882;51.120;17.248;2023-03-01T05:18:56;110.57;;;47.80;;
40164;SDS011;25882;51.120;17.248;2023-03-01T05:21:22;115.35;;;48.88;;
40164;SDS011;25882;51.120;17.248;2023-03-01T05:23:48;120.35;;;52.63;;
40164;SDS011;25882;51.120;17.248;2023-03-01T05:26:14;105.85;;;44.63;;
40164;SDS011;25882;51.120;17.248;2023-03-01T05:28:41;106.63;;;45.70;;
40164;SDS011;25882;51.120;17.248;2023-03-01T05:31:07;110.78;;;43.28;;
40164;SDS011;25882;51.120;17.248;2023-03-01T05:33:37;111.55;;;49.22;;
40164;SDS011;25882;51.120;17.248;2023-03-01T05:36:04;113.25;;;47.90;;
40164;SDS011;25882;51.120;17.248;2023-03-01T05:38:30;132.88;;;51.42;;
40164;SDS011;25882;51.120;17.248;2023-03-01T05:40:56;120.15;;;50.90;;
40164;SDS011;25882;51.120;17.248;2023-03-01T05:43:22;112.38;;;49.30;;
40164;SDS011;25882;51.120;17.248;2023-03-01T05:45:48;116.47;;;47.15;;
40164;SDS011;25882;51.120;17.248;2023-03-01T05:48:14;114.35;;;48.53;;
40164;SDS011;25882;51.120;17.248;2023-03-01T05:50:42;118.88;;;48.28;;
40164;SDS011;25882;51.120;17.248;2023-03-01T05:53:10;120.20;;;48.35;;
40164;SDS011;25882;51.120;17.248;2023-03-01T05:55:36;111.68;;;45.03;;
40164;SDS011;25882;51.120;17.248;2023-03-01T05:58:04;118.45;;;46.58;;
40164;SDS011;25882;51.120;17.248;2023-03-01T06:00:30;107.05;;;45.78;;
40164;SDS011;25882;51.120;17.248;2023-03-01T06:02:57;111.63;;;46.08;;
40164;SDS011;25882;51.120;17.248;2023-03-01T06:05:23;100.10;;;43.42;;
40164;SDS011;25882;51.120;17.248;2023-03-01T06:07:51;125.10;;;48.45;;
40164;SDS011;25882;51.120;17.248;2023-03-01T06:10:18;98.53;;;43.17;;
40164;SDS011;25882;51.120;17.248;2023-03-01T06:12:45;104.88;;;43.88;;
40164;SDS011;25882;51.120;17.248;2023-03-01T06:15:11;102.10;;;43.33;;
40164;SDS011;25882;51.120;17.248;2023-03-01T06:17:39;93.68;;;39.92;;
40164;SDS011;25882;51.120;17.248;2023-03-01T06:20:06;103.88;;;42.53;;
40164;SDS011;25882;51.120;17.248;2023-03-01T06:22:34;94.07;;;39.95;;
40164;SDS011;25882;51.120;17.248;2023-03-01T06:25:01;101.72;;;43.65;;
40164;SDS011;25882;51.120;17.248;2023-03-01T06:27:28;99.47;;;42.55;;
40164;SDS011;25882;51.120;17.248;2023-03-01T06:29:54;91.97;;;41.22;;
40164;SDS011;25882;51.120;17.248;2023-03-01T06:32:20;102.57;;;45.60;;
40164;SDS011;25882;51.120;17.248;2023-03-01T06:34:46;113.22;;;44.78;;
40164;SDS011;25882;51.120;17.248;2023-03-01T06:37:12;103.32;;;45.33;;
40164;SDS011;25882;51.120;17.248;2023-03-01T06:39:38;147.25;;;58.85;;
40164;SDS011;25882;51.120;17.248;2023-03-01T06:42:06;118.85;;;49.13;;
40164;SDS011;25882;51.120;17.248;2023-03-01T06:44:32;109.70;;;47.97;;
40164;SDS011;25882;51.120;17.248;2023-03-01T06:46:59;98.85;;;42.17;;
40164;SDS011;25882;51.120;17.248;2023-03-01T06:49:24;96.57;;;43.28;;
40164;SDS011;25882;51.120;17.248;2023-03-01T06:51:51;112.28;;;45.78;;
40164;SDS011;25882;51.120;17.248;2023-03-01T06:54:17;106.28;;;44.55;;
40164;SDS011;25882;51.120;17.248;2023-03-01T06:56:46;91.60;;;42.38;;
40164;SDS011;25882;51.120;17.248;2023-03-01T06:59:13;95.95;;;43.80;;
40164;SDS011;25882;51.120;17.248;2023-03-01T07:01:39;93.65;;;41.80;;
40164;SDS011;25882;51.120;17.248;2023-03-01T07:04:05;77.95;;;38.30;;
40164;SDS011;25882;51.120;17.248;2023-03-01T07:06:32;84.55;;;40.25;;
40164;SDS011;25882;51.120;17.248;2023-03-01T07:08:58;69.85;;;34.35;;
40164;SDS011;25882;51.120;17.248;2023-03-01T07:11:24;69.30;;;33.88;;
40164;SDS011;25882;51.120;17.248;2023-03-01T07:13:51;63.88;;;33.22;;
40164;SDS011;25882;51.120;17.248;2023-03-01T07:16:19;64.80;;;32.83;;
40164;SDS011;25882;51.120;17.248;2023-03-01T07:18:45;68.65;;;34.05;;
40164;SDS011;25882;51.120;17.248;2023-03-01T07:21:12;66.90;;;35.00;;
40164;SDS011;25882;51.120;17.248;2023-03-01T07:23:38;65.03;;;33.58;;
40164;SDS011;25882;51.120;17.248;2023-03-01T07:26:05;69.00;;;33.17;;
40164;SDS011;25882;51.120;17.248;2023-03-01T07:28:31;62.25;;;32.08;;
40164;SDS011;25882;51.120;17.248;2023-03-01T07:31:02;66.60;;;32.08;;
40164;SDS011;25882;51.120;17.248;2023-03-01T07:33:29;61.90;;;33.25;;
40164;SDS011;25882;51.120;17.248;2023-03-01T07:35:56;67.47;;;34.38;;
40164;SDS011;25882;51.120;17.248;2023-03-01T07:38:22;66.00;;;34.97;;
40164;SDS011;25882;51.120;17.248;2023-03-01T07:40:48;68.78;;;35.97;;
40164;SDS011;25882;51.120;17.248;2023-03-01T07:43:14;60.40;;;34.08;;
40164;SDS011;25882;51.120;17.248;2023-03-01T07:45:40;65.15;;;36.85;;
40164;SDS011;25882;51.120;17.248;2023-03-01T07:48:06;65.72;;;35.35;;
40164;SDS011;25882;51.120;17.248;2023-03-01T07:50:34;62.58;;;33.42;;
40164;SDS011;25882;51.120;17.248;2023-03-01T07:53:00;56.53;;;31.65;;
40164;SDS011;25882;51.120;17.248;2023-03-01T07:55:26;53.83;;;29.67;;
40164;SDS011;25882;51.120;17.248;2023-03-01T07:57:51;57.08;;;31.15;;
40164;SDS011;25882;51.120;17.248;2023-03-01T08:00:18;56.58;;;30.90;;
40164;SDS011;25882;51.120;17.248;2023-03-01T08:02:44;53.00;;;29.27;;
40164;SDS011;25882;51.120;17.248;2023-03-01T08:05:11;53.58;;;28.50;;
40164;SDS011;25882;51.120;17.248;2023-03-01T08:07:38;58.50;;;30.20;;
40164;SDS011;25882;51.120;17.248;2023-03-01T08:10:05;43.42;;;23.77;;
40164;SDS011;25882;51.120;17.248;2023-03-01T08:12:31;41.50;;;25.48;;
40164;SDS011;25882;51.120;17.248;2023-03-01T08:14:57;47.22;;;26.35;;
40164;SDS011;25882;51.120;17.248;2023-03-01T08:17:23;49.05;;;27.05;;
40164;SDS011;25882;51.120;17.248;2023-03-01T08:19:49;42.53;;;25.25;;
40164;SDS011;25882;51.120;17.248;2023-03-01T08:22:15;39.70;;;23.38;;
40164;SDS011;25882;51.120;17.248;2023-03-01T08:24:43;37.13;;;22.60;;
40164;SDS011;25882;51.120;17.248;2023-03-01T08:27:09;36.70;;;22.83;;
40164;SDS011;25882;51.120;17.248;2023-03-01T08:29:36;39.78;;;21.98;;
40164;SDS011;25882;51.120;17.248;2023-03-01T08:32:01;36.45;;;21.80;;
40164;SDS011;25882;51.120;17.248;2023-03-01T08:34:28;39.33;;;20.77;;
40164;SDS011;25882;51.120;17.248;2023-03-01T08:36:54;32.03;;;20.42;;
40164;SDS011;25882;51.120;17.248;2023-03-01T08:39:20;41.95;;;24.10;;
40164;SDS011;25882;51.120;17.248;2023-03-01T08:41:47;40.08;;;25.30;;
40164;SDS011;25882;51.120;17.248;2023-03-01T08:44:14;47.03;;;27.23;;
40164;SDS011;25882;51.120;17.248;2023-03-01T08:46:42;47.95;;;27.00;;
40164;SDS011;25882;51.120;17.248;2023-03-01T08:49:08;45.58;;;26.02;;
40164;SDS011;25882;51.120;17.248;2023-03-01T08:51:35;43.05;;;25.08;;
40164;SDS011;25882;51.120;17.248;2023-03-01T08:54:03;37.65;;;23.20;;
40164;SDS011;25882;51.120;17.248;2023-03-01T08:56:29;47.72;;;25.95;;
40164;SDS011;25882;51.120;17.248;2023-03-01T08:58:56;41.08;;;25.90;;
40164;SDS011;25882;51.120;17.248;2023-03-01T09:01:22;45.40;;;24.08;;
40164;SDS011;25882;51.120;17.248;2023-03-01T09:03:48;35.83;;;22.35;;
40164;SDS011;25882;51.120;17.248;2023-03-01T09:06:14;32.20;;;19.38;;
40164;SDS011;25882;51.120;17.248;2023-03-01T09:08:42;32.20;;;20.38;;
40164;SDS011;25882;51.120;17.248;2023-03-01T09:11:09;29.50;;;18.15;;
40164;SDS011;25882;51.120;17.248;2023-03-01T09:13:35;30.92;;;19.02;;
40164;SDS011;25882;51.120;17.248;2023-03-01T09:16:04;24.63;;;16.13;;
40164;SDS011;25882;51.120;17.248;2023-03-01T09:18:31;33.78;;;20.00;;
40164;SDS011;25882;51.120;17.248;2023-03-01T09:21:00;29.90;;;18.80;;
40164;SDS011;25882;51.120;17.248;2023-03-01T09:23:26;26.33;;;17.30;;
40164;SDS011;25882;51.120;17.248;2023-03-01T09:25:52;30.33;;;18.73;;
40164;SDS011;25882;51.120;17.248;2023-03-01T09:28:19;28.33;;;17.88;;
40164;SDS011;25882;51.120;17.248;2023-03-01T09:30:45;28.05;;;18.58;;
40164;SDS011;25882;51.120;17.248;2023-03-01T09:33:12;29.90;;;16.98;;
40164;SDS011;25882;51.120;17.248;2023-03-01T09:35:40;26.13;;;16.63;;
40164;SDS011;25882;51.120;17.248;2023-03-01T09:38:11;28.17;;;17.17;;
40164;SDS011;25882;51.120;17.248;2023-03-01T09:40:41;25.13;;;16.02;;
40164;SDS011;25882;51.120;17.248;2023-03-01T09:43:11;29.42;;;18.08;;
40164;SDS011;25882;51.120;17.248;2023-03-01T09:45:39;25.08;;;15.30;;
40164;SDS011;25882;51.120;17.248;2023-03-01T09:48:08;22.95;;;14.32;;
40164;SDS011;25882;51.120;17.248;2023-03-01T09:50:40;24.98;;;14.93;;
40164;SDS011;25882;51.120;17.248;2023-03-01T09:53:09;25.75;;;14.55;;
40164;SDS011;25882;51.120;17.248;2023-03-01T09:55:37;23.17;;;14.90;;
40164;SDS011;25882;51.120;17.248;2023-03-01T09:58:25;23.95;;;15.90;;
40164;SDS011;25882;51.120;17.248;2023-03-01T10:00:51;26.13;;;15.52;;
40164;SDS011;25882;51.120;17.248;2023-03-01T10:03:20;23.70;;;14.82;;
40164;SDS011;25882;51.120;17.248;2023-03-01T10:05:52;31.10;;;17.20;;
40164;SDS011;25882;51.120;17.248;2023-03-01T10:08:33;97.38;;;32.28;;
40164;SDS011;25882;51.120;17.248;2023-03-01T10:11:02;28.90;;;16.75;;
40164;SDS011;25882;51.120;17.248;2023-03-01T10:13:31;30.08;;;17.27;;
40164;SDS011;25882;51.120;17.248;2023-03-01T10:16:01;34.47;;;18.77;;
40164;SDS011;25882;51.120;17.248;2023-03-01T10:18:29;30.23;;;17.55;;
40164;SDS011;25882;51.120;17.248;2023-03-01T10:20:59;48.08;;;21.35;;
40164;SDS011;25882;51.120;17.248;2023-03-01T10:23:26;34.40;;;17.13;;
40164;SDS011;25882;51.120;17.248;2023-03-01T10:26:04;35.25;;;17.30;;
40164;SDS011;25882;51.120;17.248;2023-03-01T10:28:36;52.40;;;22.55;;
40164;SDS011;25882;51.120;17.248;2023-03-01T10:31:05;28.80;;;16.65;;
40164;SDS011;25882;51.120;17.248;2023-03-01T10:33:35;23.13;;;13.40;;
40164;SDS011;25882;51.120;17.248;2023-03-01T10:36:04;25.00;;;14.60;;
40164;SDS011;25882;51.120;17.248;2023-03-01T10:38:31;23.27;;;14.75;;
40164;SDS011;25882;51.120;17.248;2023-03-01T10:41:12;24.88;;;14.98;;
40164;SDS011;25882;51.120;17.248;2023-03-01T10:43:43;25.42;;;14.18;;
40164;SDS011;25882;51.120;17.248;2023-03-01T10:46:19;24.67;;;14.85;;
40164;SDS011;25882;51.120;17.248;2023-03-01T10:48:50;35.88;;;18.05;;
40164;SDS011;25882;51.120;17.248;2023-03-01T10:51:32;30.75;;;16.35;;
40164;SDS011;25882;51.120;17.248;2023-03-01T10:53:58;29.35;;;15.77;;
40164;SDS011;25882;51.120;17.248;2023-03-01T10:56:24;33.65;;;16.58;;
40164;SDS011;25882;51.120;17.248;2023-03-01T10:58:58;32.03;;;18.55;;
40164;SDS011;25882;51.120;17.248;2023-03-01T11:01:25;34.72;;;17.35;;
40164;SDS011;25882;51.120;17.248;2023-03-01T11:04:03;30.90;;;18.17;;
40164;SDS011;25882;51.120;17.248;2023-03-01T11:06:36;30.70;;;17.88;;
40164;SDS011;25882;51.120;17.248;2023-03-01T11:09:12;32.75;;;18.10;;
40164;SDS011;25882;51.120;17.248;2023-03-01T11:11:39;40.78;;;18.88;;
40164;SDS011;25882;51.120;17.248;2023-03-01T11:14:06;28.80;;;17.38;;
40164;SDS011;25882;51.120;17.248;2023-03-01T11:16:34;31.27;;;17.23;;
40164;SDS011;25882;51.120;17.248;2023-03-01T11:19:04;30.08;;;16.50;;
40164;SDS011;25882;51.120;17.248;2023-03-01T11:21:30;31.30;;;17.65;;
40164;SDS011;25882;51.120;17.248;2023-03-01T11:24:01;33.25;;;16.63;;
40164;SDS011;25882;51.120;17.248;2023-03-01T11:26:28;32.10;;;15.90;;
40164;SDS011;25882;51.120;17.248;2023-03-01T11:28:56;31.65;;;16.73;;
40164;SDS011;25882;51.120;17.248;2023-03-01T11:31:24;38.33;;;18.20;;
40164;SDS011;25882;51.120;17.248;2023-03-01T11:33:53;29.23;;;16.13;;
40164;SDS011;25882;51.120;17.248;2023-03-01T11:36:22;33.60;;;17.52;;
40164;SDS011;25882;51.120;17.248;2023-03-01T11:38:51;31.80;;;16.48;;
40164;SDS011;25882;51.120;17.248;2023-03-01T11:41:20;29.75;;;16.30;;
40164;SDS011;25882;51.120;17.248;2023-03-01T11:43:49;25.73;;;14.82;;
40164;SDS011;25882;51.120;17.248;2023-03-01T11:46:33;29.35;;;15.25;;
40164;SDS011;25882;51.120;17.248;2023-03-01T11:49:04;32.28;;;15.30;;
40164;SDS011;25882;51.120;17.248;2023-03-01T11:51:37;25.17;;;14.45;;
40164;SDS011;25882;51.120;17.248;2023-03-01T11:54:06;25.10;;;12.95;;
40164;SDS011;25882;51.120;17.248;2023-03-01T11:56:35;23.10;;;11.38;;
40164;SDS011;25882;51.120;17.248;2023-03-01T12:01:51;20.77;;;10.57;;
40164;SDS011;25882;51.120;17.248;2023-03-01T12:07:07;23.27;;;10.73;;
40164;SDS011;25882;51.120;17.248;2023-03-01T12:09:43;18.60;;;10.00;;
40164;SDS011;25882;51.120;17.248;2023-03-01T12:12:21;20.27;;;10.82;;
40164;SDS011;25882;51.120;17.248;2023-03-01T12:14:54;17.27;;;9.05;;
40164;SDS011;25882;51.120;17.248;2023-03-01T12:17:33;16.98;;;10.18;;
40164;SDS011;25882;51.120;17.248;2023-03-01T12:22:52;22.27;;;10.95;;
40164;SDS011;25882;51.120;17.248;2023-03-01T12:25:27;20.80;;;11.52;;
40164;SDS011;25882;51.120;17.248;2023-03-01T12:28:07;20.88;;;11.88;;
40164;SDS011;25882;51.120;17.248;2023-03-01T12:30:37;15.40;;;9.65;;
40164;SDS011;25882;51.120;17.248;2023-03-01T12:33:12;18.30;;;10.15;;
40164;SDS011;25882;51.120;17.248;2023-03-01T12:35:47;19.80;;;10.45;;
40164;SDS011;25882;51.120;17.248;2023-03-01T12:43:26;20.83;;;11.23;;
40164;SDS011;25882;51.120;17.248;2023-03-01T12:45:58;19.90;;;10.57;;
40164;SDS011;25882;51.120;17.248;2023-03-01T12:48:32;21.40;;;10.68;;
40164;SDS011;25882;51.120;17.248;2023-03-01T12:51:02;21.67;;;12.30;;
40164;SDS011;25882;51.120;17.248;2023-03-01T12:53:31;18.00;;;10.32;;
40164;SDS011;25882;51.120;17.248;2023-03-01T12:55:58;19.50;;;9.75;;
40164;SDS011;25882;51.120;17.248;2023-03-01T12:58:29;18.95;;;11.13;;
40164;SDS011;25882;51.120;17.248;2023-03-01T13:01:02;18.02;;;10.50;;
40164;SDS011;25882;51.120;17.248;2023-03-01T13:03:32;19.88;;;11.38;;
40164;SDS011;25882;51.120;17.248;2023-03-01T13:06:06;22.42;;;12.20;;
40164;SDS011;25882;51.120;17.248;2023-03-01T13:08:36;20.90;;;10.68;;
40164;SDS011;25882;51.120;17.248;2023-03-01T13:11:06;25.55;;;12.77;;
40164;SDS011;25882;51.120;17.248;2023-03-01T13:13:38;25.77;;;12.80;;
40164;SDS011;25882;51.120;17.248;2023-03-01T13:16:21;22.63;;;12.00;;
40164;SDS011;25882;51.120;17.248;2023-03-01T13:18:47;20.20;;;11.73;;
40164;SDS011;25882;51.120;17.248;2023-03-01T13:21:14;24.63;;;11.75;;
40164;SDS011;25882;51.120;17.248;2023-03-01T13:23:54;20.65;;;11.55;;
40164;SDS011;25882;51.120;17.248;2023-03-01T13:26:20;22.38;;;12.15;;
40164;SDS011;25882;51.120;17.248;2023-03-01T13:34:43;21.27;;;11.02;;
40164;SDS011;25882;51.120;17.248;2023-03-01T13:37:10;20.33;;;11.07;;
40164;SDS011;25882;51.120;17.248;2023-03-01T13:39:43;17.90;;;10.63;;
40164;SDS011;25882;51.120;17.248;2023-03-01T13:44:54;19.17;;;11.63;;
40164;SDS011;25882;51.120;17.248;2023-03-01T13:47:20;22.92;;;11.10;;
40164;SDS011;25882;51.120;17.248;2023-03-01T13:49:48;20.80;;;10.45;;
40164;SDS011;25882;51.120;17.248;2023-03-01T13:52:36;18.23;;;9.85;;
40164;SDS011;25882;51.120;17.248;2023-03-01T13:55:03;15.75;;;9.35;;
40164;SDS011;25882;51.120;17.248;2023-03-01T13:57:32;19.65;;;11.05;;
40164;SDS011;25882;51.120;17.248;2023-03-01T14:00:00;24.48;;;11.90;;
40164;SDS011;25882;51.120;17.248;2023-03-01T14:02:26;24.85;;;12.20;;
40164;SDS011;25882;51.120;17.248;2023-03-01T14:04:59;20.08;;;11.52;;
40164;SDS011;25882;51.120;17.248;2023-03-01T14:07:26;24.02;;;12.45;;
40164;SDS011;25882;51.120;17.248;2023-03-01T14:09:56;22.55;;;11.57;;
40164;SDS011;25882;51.120;17.248;2023-03-01T14:12:26;23.63;;;12.55;;
40164;SDS011;25882;51.120;17.248;2023-03-01T14:14:56;24.17;;;12.52;;
40164;SDS011;25882;51.120;17.248;2023-03-01T14:17:27;24.55;;;13.07;;
40164;SDS011;25882;51.120;17.248;2023-03-01T14:19:57;20.42;;;10.75;;
40164;SDS011;25882;51.120;17.248;2023-03-01T14:22:25;20.00;;;11.63;;
40164;SDS011;25882;51.120;17.248;2023-03-01T14:24:55;19.27;;;11.25;;
40164;SDS011;25882;51.120;17.248;2023-03-01T14:27:22;20.48;;;10.93;;
40164;SDS011;25882;51.120;17.248;2023-03-01T14:29:55;21.27;;;11.30;;
40164;SDS011;25882;51.120;17.248;2023-03-01T14:32:24;19.90;;;10.65;;
40164;SDS011;25882;51.120;17.248;2023-03-01T14:34:50;18.98;;;10.93;;
40164;SDS011;25882;51.120;17.248;2023-03-01T14:37:18;18.73;;;9.85;;